Time;durP1;ratioP1;P1;durP2;ratioP2;P2;SDS_P1;SDS_P2;PMS_P1;PMS_P2;Temp;Humidity;BMP_temperature;BMP_pressure;BME280_temperature;BME280_humidity;BME280_pressure;Samples;Min_cycle;Max_cycle;Signal;HPM_P1;HPM_P2
2022/09/01 00:01:56;;;;;;;3.10;2.03;;;16.30;99.90;;;;;;5093749;28;20177;-67
2022/09/01 00:04:27;;;;;;;2.30;2.10;;;16.30;99.90;;;;;;5093592;28;20177;-67
2022/09/01 00:06:54;;;;;;;3.88;2.28;;;16.30;99.90;;;;;;5092522;28;20200;-67
2022/09/01 00:09:21;;;;;;;2.30;2.10;;;16.20;99.90;;;;;;5093755;28;20670;-67
2022/09/01 00:11:50;;;;;;;4.68;2.35;;;16.20;99.90;;;;;;5094020;28;20177;-67
2022/09/01 00:14:24;;;;;;;2.17;1.95;;;16.20;99.90;;;;;;5093678;28;20165;-67
2022/09/01 00:16:50;;;;;;;2.33;2.13;;;16.20;99.90;;;;;;5093888;28;20645;-68
2022/09/01 00:19:15;;;;;;;2.10;1.90;;;16.20;99.90;;;;;;5093308;28;20193;-67
2022/09/01 00:21:44;;;;;;;3.35;2.42;;;16.20;99.90;;;;;;5093592;28;20200;-67
2022/09/01 00:24:11;;;;;;;4.32;2.15;;;16.10;99.90;;;;;;5093750;28;20703;-67
2022/09/01 00:26:38;;;;;;;3.42;2.15;;;16.00;99.90;;;;;;5093768;28;20654;-67
2022/09/01 00:29:05;;;;;;;2.85;2.30;;;15.90;99.90;;;;;;5094137;28;20246;-67
2022/09/01 00:31:31;;;;;;;3.03;2.33;;;15.90;99.90;;;;;;5093854;28;20711;-67
2022/09/01 00:33:57;;;;;;;2.25;1.92;;;15.90;99.90;;;;;;5092038;28;20619;-67
2022/09/01 00:36:23;;;;;;;5.45;2.22;;;15.90;99.90;;;;;;5093485;28;20221;-67
2022/09/01 00:38:50;;;;;;;2.83;2.10;;;15.80;99.90;;;;;;5093876;28;20243;-67
2022/09/01 00:41:18;;;;;;;2.35;2.17;;;15.80;99.90;;;;;;5093391;28;20169;-67
2022/09/01 00:43:50;;;;;;;2.47;2.28;;;15.70;99.90;;;;;;5093389;28;20177;-67
2022/09/01 00:46:28;;;;;;;2.38;2.17;;;15.70;99.90;;;;;;5093383;28;20205;-67
2022/09/01 00:49:13;;;;;;;5.15;2.35;;;15.70;99.90;;;;;;5096944;28;20193;-67
2022/09/01 00:51:46;;;;;;;2.42;2.20;;;15.50;99.90;;;;;;5097562;28;20161;-67
2022/09/01 00:54:17;;;;;;;2.45;2.10;;;15.40;99.90;;;;;;5097211;28;20150;-67
2022/09/01 00:56:44;;;;;;;2.30;2.13;;;15.40;99.90;;;;;;5097469;28;20525;-67
2022/09/01 00:59:11;;;;;;;2.40;2.20;;;15.20;99.90;;;;;;5097093;28;20180;-67
2022/09/01 01:01:38;;;;;;;2.58;2.38;;;15.30;99.90;;;;;;5096994;28;20166;-67
2022/09/01 01:04:05;;;;;;;2.33;2.13;;;15.20;99.90;;;;;;5095268;28;20193;-67
2022/09/01 01:06:32;;;;;;;3.28;2.38;;;15.10;99.90;;;;;;5097063;28;20209;-67
2022/09/01 01:08:59;;;;;;;3.78;2.47;;;15.00;99.90;;;;;;5095743;28;20595;-67
2022/09/01 01:11:31;;;;;;;2.47;2.28;;;14.90;99.90;;;;;;5096632;28;20169;-67
2022/09/01 01:14:04;;;;;;;3.97;2.50;;;14.80;99.90;;;;;;5095398;28;20165;-67
2022/09/01 01:16:30;;;;;;;4.60;2.50;;;14.70;99.90;;;;;;5096936;28;20595;-67
2022/09/01 01:18:56;;;;;;;2.83;2.42;;;14.70;99.90;;;;;;5096175;28;20220;-67
2022/09/01 01:24:20;;;;;;;2.42;2.20;;;14.60;99.90;;;;;;5096572;28;20164;-67
2022/09/01 01:26:46;;;;;;;3.22;2.15;;;14.60;99.90;;;;;;5096214;28;20219;-67
2022/09/01 01:29:13;;;;;;;2.50;2.30;;;14.70;99.90;;;;;;5095166;28;20642;-67
2022/09/01 01:31:39;;;;;;;5.28;2.42;;;14.70;99.90;;;;;;5096246;28;20180;-67
2022/09/01 01:34:06;;;;;;;3.40;2.40;;;14.60;99.90;;;;;;5095966;28;20256;-67
2022/09/01 01:36:35;;;;;;;3.80;2.47;;;14.60;99.90;;;;;;5096143;28;20199;-67
2022/09/01 01:39:14;;;;;;;4.05;2.88;;;14.50;99.90;;;;;;5096344;28;20169;-67
2022/09/01 01:41:43;;;;;;;3.95;2.63;;;14.40;99.90;;;;;;5096468;28;20165;-67
2022/09/01 01:44:11;;;;;;;3.53;2.88;;;14.40;99.90;;;;;;5096268;28;20533;-67
2022/09/01 01:46:42;;;;;;;3.58;2.75;;;14.40;99.90;;;;;;5095900;28;20227;-67
2022/09/01 01:49:17;;;;;;;3.53;2.67;;;14.40;99.90;;;;;;5096395;28;20150;-67
2022/09/01 01:51:44;;;;;;;4.88;2.40;;;14.30;99.90;;;;;;5095076;28;20360;-67
2022/09/01 01:54:09;;;;;;;3.88;2.47;;;14.20;99.90;;;;;;5097859;28;20165;-67
2022/09/01 01:56:38;;;;;;;2.70;2.50;;;14.30;99.90;;;;;;5098982;28;20223;-67
2022/09/01 01:59:06;;;;;;;5.88;2.70;;;14.20;99.90;;;;;;5098395;28;20193;-67
2022/09/01 02:01:32;;;;;;;3.00;2.70;;;14.20;99.90;;;;;;5099053;28;20237;-67
2022/09/01 02:03:59;;;;;;;2.60;2.40;;;14.20;99.90;;;;;;5095910;28;20176;-68
2022/09/01 02:06:26;;;;;;;9.30;2.42;;;14.10;99.90;;;;;;5094352;28;20220;-67
2022/09/01 02:08:57;;;;;;;5.30;2.63;;;14.00;99.90;;;;;;5095788;28;20173;-67
2022/09/01 02:11:26;;;;;;;3.40;2.85;;;14.00;99.90;;;;;;5096100;28;20153;-67
2022/09/01 02:13:57;;;;;;;2.63;2.25;;;13.90;99.90;;;;;;5095547;28;20173;-67
2022/09/01 02:16:25;;;;;;;2.30;2.05;;;13.90;99.90;;;;;;5095387;28;20606;-67
2022/09/01 02:18:52;;;;;;;3.25;2.20;;;13.90;99.90;;;;;;5094126;28;20238;-67
2022/09/01 02:21:21;;;;;;;2.70;2.50;;;13.90;99.90;;;;;;5095080;28;20188;-67
2022/09/01 02:23:56;;;;;;;3.75;2.47;;;13.90;99.90;;;;;;5095342;28;20173;-67
2022/09/01 02:26:30;;;;;;;2.70;2.50;;;13.80;99.90;;;;;;5095613;28;20196;-67
2022/09/01 02:29:03;;;;;;;2.70;2.50;;;13.80;99.90;;;;;;5095426;28;20222;-67
2022/09/01 02:31:38;;;;;;;2.83;2.63;;;13.80;99.90;;;;;;5094066;28;20214;-67
2022/09/01 02:34:09;;;;;;;5.65;2.85;;;13.70;99.90;;;;;;5095179;28;20637;-68
2022/09/01 02:36:46;;;;;;;3.80;2.80;;;13.70;99.90;;;;;;5094866;28;20193;-68
2022/09/01 02:39:17;;;;;;;4.20;2.60;;;13.70;99.90;;;;;;5095440;28;20222;-67
2022/09/01 02:41:43;;;;;;;6.28;2.60;;;13.60;99.90;;;;;;5095241;28;20161;-67
2022/09/01 02:44:13;;;;;;;3.83;2.70;;;13.50;99.90;;;;;;5094924;28;20170;-67
2022/09/01 02:46:44;;;;;;;3.22;2.90;;;13.50;99.90;;;;;;5094851;28;20625;-67
2022/09/01 02:49:18;;;;;;;2.60;2.40;;;13.50;99.90;;;;;;5094693;28;20196;-67
2022/09/01 02:51:52;;;;;;;3.67;2.53;;;13.50;99.90;;;;;;5094944;28;20241;-68
2022/09/01 02:54:23;;;;;;;5.25;2.90;;;13.40;99.90;;;;;;5094584;28;20202;-67
2022/09/01 02:56:53;;;;;;;2.88;2.60;;;13.40;99.90;;;;;;5095096;28;20180;-67
2022/09/01 02:59:21;;;;;;;3.15;2.78;;;13.40;99.90;;;;;;5093127;28;20180;-67
2022/09/01 03:01:52;;;;;;;4.00;2.95;;;13.40;99.90;;;;;;5095203;28;20218;-69
2022/09/01 03:04:19;;;;;;;3.10;2.80;;;13.30;99.90;;;;;;5093031;28;20162;-68
2022/09/01 03:06:45;;;;;;;4.25;2.72;;;13.30;99.90;;;;;;5094506;28;20246;-68
2022/09/01 03:09:14;;;;;;;2.92;2.65;;;13.30;99.90;;;;;;5094518;28;20157;-69
2022/09/01 03:11:43;;;;;;;3.50;3.20;;;13.30;99.90;;;;;;5092509;28;20177;-69
2022/09/01 03:14:11;;;;;;;5.15;2.83;;;13.30;99.90;;;;;;5094575;28;20173;-69
2022/09/01 03:16:38;;;;;;;3.55;3.10;;;13.40;99.90;;;;;;5094225;28;20199;-69
2022/09/01 03:19:07;;;;;;;4.80;2.80;;;13.40;99.90;;;;;;5093019;28;20204;-69
2022/09/01 03:21:34;;;;;;;3.50;2.60;;;13.40;99.90;;;;;;5092932;28;20268;-69
2022/09/01 03:24:02;;;;;;;4.07;3.42;;;13.30;99.90;;;;;;5093220;28;20173;-69
2022/09/01 03:26:29;;;;;;;3.80;2.95;;;13.40;99.90;;;;;;5094219;28;20200;-68
2022/09/01 03:28:56;;;;;;;6.00;3.05;;;13.30;99.90;;;;;;5094432;28;20266;-69
2022/09/01 03:31:26;;;;;;;3.42;2.90;;;13.30;99.90;;;;;;5094340;28;20165;-68
2022/09/01 03:33:53;;;;;;;5.53;3.45;;;13.30;99.90;;;;;;5094469;28;20272;-68
2022/09/01 03:36:19;;;;;;;6.53;3.10;;;13.30;99.90;;;;;;5093926;28;20276;-69
2022/09/01 03:38:50;;;;;;;4.78;3.90;;;13.30;99.90;;;;;;5094198;28;20200;-69
2022/09/01 03:41:20;;;;;;;4.32;3.83;;;13.20;99.90;;;;;;5094445;28;20622;-68
2022/09/01 03:43:46;;;;;;;3.73;3.27;;;13.20;99.90;;;;;;5094154;28;20188;-69
2022/09/01 03:46:18;;;;;;;3.60;3.20;;;13.00;99.90;;;;;;5092780;28;20697;-68
2022/09/01 03:48:47;;;;;;;3.40;3.10;;;12.90;99.90;;;;;;5094315;28;20232;-69
2022/09/01 03:51:15;;;;;;;4.00;3.30;;;12.90;99.90;;;;;;5094122;28;20412;-68
2022/09/01 03:53:42;;;;;;;4.18;3.60;;;12.90;99.90;;;;;;5093956;28;20199;-69
2022/09/01 03:56:10;;;;;;;6.07;3.78;;;12.90;99.90;;;;;;5093928;28;20188;-68
2022/09/01 03:58:36;;;;;;;5.25;3.35;;;12.90;99.90;;;;;;5094563;28;20221;-68
2022/09/01 04:01:01;;;;;;;4.32;3.45;;;12.90;99.90;;;;;;5094009;28;20170;-68
2022/09/01 04:03:30;;;;;;;3.85;3.30;;;12.80;99.90;;;;;;5093886;28;20169;-68
2022/09/01 04:05:58;;;;;;;5.70;3.83;;;12.80;99.90;;;;;;5093827;28;20192;-68
2022/09/01 04:08:31;;;;;;;5.87;3.20;;;12.80;99.90;;;;;;5092680;28;20181;-68
2022/09/01 04:11:01;;;;;;;5.05;3.20;;;12.80;99.90;;;;;;5094162;28;20157;-69
2022/09/01 04:13:30;;;;;;;4.88;3.58;;;12.70;99.90;;;;;;5092706;28;20188;-69
2022/09/01 04:15:57;;;;;;;4.03;3.58;;;12.70;99.90;;;;;;5094225;28;20557;-68
2022/09/01 04:18:24;;;;;;;3.97;3.30;;;12.70;99.90;;;;;;5093760;28;20169;-69
2022/09/01 04:20:55;;;;;;;5.80;3.40;;;12.70;99.90;;;;;;5093900;28;20208;-68
2022/09/01 04:23:28;;;;;;;4.57;3.40;;;12.70;99.90;;;;;;5097434;28;20173;-69
2022/09/01 04:26:14;;;;;;;3.97;3.58;;;12.70;99.90;;;;;;5096413;28;20250;-68
2022/09/01 04:28:44;;;;;;;3.35;3.05;;;12.60;99.90;;;;;;5096634;28;20553;-69
2022/09/01 04:31:17;;;;;;;5.40;3.63;;;12.60;99.90;;;;;;5098399;28;20169;-68
2022/09/01 04:33:45;;;;;;;4.93;3.80;;;12.60;99.90;;;;;;5104919;28;20184;-68
2022/09/01 04:36:19;;;;;;;4.07;3.53;;;12.60;99.90;;;;;;5097582;28;20670;-71
2022/09/01 04:38:53;;;;;;;7.57;3.72;;;12.60;99.90;;;;;;5099881;28;20156;-69
2022/09/01 04:41:21;;;;;;;7.17;3.80;;;12.60;99.90;;;;;;5099857;28;20245;-69
2022/09/01 04:43:50;;;;;;;4.68;3.17;;;12.60;99.90;;;;;;5099007;28;20300;-69
2022/09/01 04:46:19;;;;;;;5.07;3.60;;;12.50;99.90;;;;;;5098031;28;20201;-68
2022/09/01 04:48:46;;;;;;;3.90;3.40;;;12.50;99.90;;;;;;5097391;28;20184;-68
2022/09/01 04:51:14;;;;;;;7.13;3.75;;;12.50;99.90;;;;;;5096974;28;20217;-68
2022/09/01 04:53:47;;;;;;;4.82;3.60;;;12.50;99.90;;;;;;5096037;28;20165;-69
2022/09/01 04:56:18;;;;;;;6.57;3.60;;;12.50;99.90;;;;;;5097075;28;20192;-69
2022/09/01 04:58:45;;;;;;;5.38;3.97;;;12.40;99.90;;;;;;5096922;28;20212;-69
2022/09/01 05:01:23;;;;;;;4.55;3.40;;;12.30;99.90;;;;;;5097061;28;20173;-69
2022/09/01 05:03:58;;;;;;;6.00;3.50;;;12.30;99.90;;;;;;5096887;28;20241;-69
2022/09/01 05:06:24;;;;;;;3.33;3.03;;;12.30;99.90;;;;;;5096511;28;20433;-70
2022/09/01 05:08:50;;;;;;;4.97;3.60;;;12.30;99.90;;;;;;5095463;28;20188;-69
2022/09/01 05:11:16;;;;;;;5.38;3.85;;;12.30;99.90;;;;;;5095435;28;20173;-69
2022/09/01 05:13:44;;;;;;;4.13;3.67;;;12.30;99.90;;;;;;5096814;28;20512;-69
2022/09/01 05:16:11;;;;;;;3.67;3.33;;;12.30;99.90;;;;;;5096690;28;20196;-69
2022/09/01 05:18:46;;;;;;;5.67;3.80;;;12.30;99.90;;;;;;5096317;28;20181;-69
2022/09/01 05:21:15;;;;;;;5.30;3.90;;;12.30;99.90;;;;;;5096345;28;20185;-69
2022/09/01 05:23:42;;;;;;;6.85;4.07;;;12.30;99.90;;;;;;5096620;28;20208;-69
2022/09/01 05:26:16;;;;;;;4.35;3.70;;;12.30;99.90;;;;;;5096094;28;20219;-69
2022/09/01 05:28:47;;;;;;;9.07;3.60;;;12.40;99.90;;;;;;5095297;28;20533;-69
2022/09/01 05:31:18;;;;;;;5.07;3.70;;;12.50;99.90;;;;;;5096282;28;20173;-69
2022/09/01 05:33:48;;;;;;;4.67;3.50;;;12.60;99.90;;;;;;5094170;28;20166;-69
2022/09/01 05:36:18;;;;;;;7.68;4.15;;;12.60;99.90;;;;;;5096065;28;20556;-69
2022/09/01 05:38:46;;;;;;;3.75;3.35;;;12.70;99.90;;;;;;5096690;28;20170;-69
2022/09/01 05:41:14;;;;;;;5.53;3.50;;;12.70;99.90;;;;;;5096396;28;20303;-69
2022/09/01 05:43:47;;;;;;;7.80;4.00;;;12.80;99.90;;;;;;5096966;28;20518;-71
2022/09/01 05:46:15;;;;;;;7.90;3.67;;;12.80;99.90;;;;;;5104999;28;20200;-70
2022/09/01 05:48:48;;;;;;;3.47;3.17;;;12.90;99.90;;;;;;5098387;28;20586;-70
2022/09/01 05:51:16;;;;;;;5.43;4.13;;;13.00;99.90;;;;;;5096219;28;20241;-70
2022/09/01 05:53:42;;;;;;;6.18;3.80;;;13.00;99.90;;;;;;5096472;28;20174;-70
2022/09/01 05:56:12;;;;;;;4.53;4.05;;;13.10;99.90;;;;;;5094750;28;20638;-70
2022/09/01 05:58:39;;;;;;;5.22;3.78;;;13.20;99.90;;;;;;5095806;28;20230;-69
2022/09/01 06:01:06;;;;;;;5.22;3.85;;;13.30;99.90;;;;;;5095692;28;20569;-68
2022/09/01 06:03:32;;;;;;;6.93;3.65;;;13.40;99.90;;;;;;5095674;28;20168;-68
2022/09/01 06:06:08;;;;;;;7.28;3.85;;;13.50;99.90;;;;;;5095402;28;20188;-68
2022/09/01 06:08:37;;;;;;;6.63;3.55;;;13.60;99.90;;;;;;5095521;28;20222;-68
2022/09/01 06:11:11;;;;;;;3.97;3.47;;;13.70;99.90;;;;;;5095809;28;20169;-68
2022/09/01 06:13:38;;;;;;;4.25;3.58;;;13.80;99.90;;;;;;5095953;28;20195;-68
2022/09/01 06:16:06;;;;;;;5.07;3.70;;;13.80;99.90;;;;;;5095274;28;20189;-68
2022/09/01 06:18:33;;;;;;;6.85;4.07;;;13.90;99.90;;;;;;5095620;28;20206;-68
2022/09/01 06:20:59;;;;;;;6.28;3.90;;;14.00;99.90;;;;;;5094994;28;20573;-68
2022/09/01 06:23:24;;;;;;;5.85;3.45;;;14.10;99.90;;;;;;5095429;28;20177;-67
2022/09/01 06:25:50;;;;;;;4.70;3.10;;;14.10;99.90;;;;;;5095538;28;20561;-68
2022/09/01 06:28:22;;;;;;;6.10;3.42;;;14.20;99.90;;;;;;5093915;28;20234;-68
2022/09/01 06:30:49;;;;;;;5.70;3.33;;;14.30;99.90;;;;;;5094321;28;20173;-69
2022/09/01 06:33:16;;;;;;;3.40;3.10;;;14.40;99.90;;;;;;5095921;28;20256;-68
2022/09/01 06:35:43;;;;;;;4.28;3.40;;;14.40;99.90;;;;;;5095372;28;20184;-67
2022/09/01 06:38:11;;;;;;;5.40;3.17;;;14.60;99.90;;;;;;5095240;28;20174;-69
2022/09/01 06:40:39;;;;;;;4.68;3.15;;;14.70;99.90;;;;;;5095453;28;20517;-68
2022/09/01 06:43:10;;;;;;;5.22;3.25;;;14.80;99.90;;;;;;5093800;28;20267;-68
2022/09/01 06:45:53;;;;;;;3.65;3.20;;;14.80;99.90;;;;;;5093568;28;20227;-68
2022/09/01 06:48:21;;;;;;;4.93;3.05;;;14.90;99.90;;;;;;5093425;28;20284;-68
2022/09/01 06:50:46;;;;;;;5.32;3.28;;;15.00;99.90;;;;;;5093227;28;20208;-68
2022/09/01 06:53:17;;;;;;;6.82;3.10;;;15.10;99.90;;;;;;5094643;28;20177;-68
2022/09/01 06:55:47;;;;;;;3.72;2.60;;;15.30;99.90;;;;;;5094858;28;20221;-68
2022/09/01 06:58:14;;;;;;;2.92;2.60;;;15.40;99.90;;;;;;5094665;28;20182;-68
2022/09/01 07:00:42;;;;;;;4.38;2.90;;;15.50;99.90;;;;;;5094778;28;20176;-69
2022/09/01 07:03:10;;;;;;;3.80;3.22;;;15.60;99.90;;;;;;5094356;28;20262;-68
2022/09/01 07:05:48;;;;;;;4.85;2.97;;;15.80;99.90;;;;;;5094642;28;20279;-68
2022/09/01 07:08:18;;;;;;;3.67;2.92;;;15.90;99.90;;;;;;5094402;28;20188;-68
2022/09/01 07:10:48;;;;;;;2.97;2.78;;;16.00;99.90;;;;;;5094658;28;20160;-68
2022/09/01 07:13:24;;;;;;;3.90;2.80;;;16.10;99.90;;;;;;5094789;28;20168;-68
2022/09/01 07:15:53;;;;;;;5.55;2.58;;;16.20;99.90;;;;;;5094656;28;20275;-69
2022/09/01 07:18:24;;;;;;;5.55;2.97;;;16.30;99.90;;;;;;5092988;28;20187;-69
2022/09/01 07:20:52;;;;;;;5.97;2.90;;;16.40;99.90;;;;;;5092737;28;20181;-68
2022/09/01 07:23:20;;;;;;;3.20;2.20;;;16.60;99.90;;;;;;5094412;28;20197;-68
2022/09/01 07:25:47;;;;;;;3.55;2.88;;;16.70;99.90;;;;;;5094505;28;20193;-70
2022/09/01 07:28:15;;;;;;;3.80;2.58;;;16.80;99.90;;;;;;5094197;28;20241;-68
2022/09/01 07:30:47;;;;;;;4.22;2.70;;;16.90;99.90;;;;;;5094177;28;20173;-68
2022/09/01 07:33:15;;;;;;;3.63;2.45;;;16.90;99.90;;;;;;5092933;28;20170;-68
2022/09/01 07:35:42;;;;;;;2.95;2.20;;;17.00;99.90;;;;;;5093940;28;20555;-68
2022/09/01 07:38:09;;;;;;;4.07;1.95;;;17.10;99.90;;;;;;5092903;28;20173;-68
2022/09/01 07:40:39;;;;;;;6.28;2.38;;;17.20;99.90;;;;;;5094313;28;20177;-68
2022/09/01 07:43:08;;;;;;;2.55;2.10;;;17.30;99.90;;;;;;5094704;28;20185;-68
2022/09/01 07:45:42;;;;;;;3.15;2.35;;;17.40;99.90;;;;;;5094167;28;20620;-68
2022/09/01 07:48:08;;;;;;;2.35;2.08;;;17.50;99.90;;;;;;5094163;28;20607;-68
2022/09/01 07:50:46;;;;;;;4.20;2.65;;;17.60;99.90;;;;;;5093746;28;20169;-68
2022/09/01 07:53:21;;;;;;;2.13;2.00;;;17.70;99.90;;;;;;5094603;28;20160;-68
2022/09/01 07:55:49;;;;;;;2.15;1.92;;;17.80;99.90;;;;;;5093938;28;20219;-66
2022/09/01 07:58:17;;;;;;;2.22;1.90;;;17.90;99.90;;;;;;5097628;28;20181;-68
2022/09/01 08:00:46;;;;;;;2.58;2.28;;;18.00;99.90;;;;;;5098167;28;20162;-68
2022/09/01 08:03:17;;;;;;;2.00;1.90;;;18.10;99.90;;;;;;5098560;28;20169;-67
2022/09/01 08:05:44;;;;;;;2.30;1.90;;;18.20;99.90;;;;;;5097467;28;20201;-67
2022/09/01 08:08:09;;;;;;;2.95;2.10;;;18.30;99.90;;;;;;5099300;28;20196;-67
2022/09/01 08:10:40;;;;;;;3.70;1.73;;;18.40;99.90;;;;;;5097530;28;20263;-68
2022/09/01 08:13:06;;;;;;;2.10;2.00;;;18.50;99.90;;;;;;5098450;28;20579;-67
2022/09/01 08:15:32;;;;;;;4.78;2.25;;;18.60;99.90;;;;;;5098089;28;20196;-67
2022/09/01 08:17:58;;;;;;;3.00;2.20;;;18.70;99.90;;;;;;5096656;28;20177;-67
2022/09/01 08:20:24;;;;;;;3.33;1.75;;;18.70;99.90;;;;;;5097817;28;20217;-67
2022/09/01 08:22:49;;;;;;;5.43;2.25;;;18.80;99.90;;;;;;5096603;28;20310;-67
2022/09/01 08:25:15;;;;;;;2.15;1.95;;;18.90;99.90;;;;;;5097993;28;20216;-67
2022/09/01 08:27:41;;;;;;;3.80;2.42;;;19.00;99.90;;;;;;5097606;28;20192;-67
2022/09/01 08:30:11;;;;;;;2.13;1.73;;;19.10;99.90;;;;;;5097941;28;20172;-67
2022/09/01 08:32:40;;;;;;;4.32;2.20;;;19.20;99.90;;;;;;5096573;28;20544;-67
2022/09/01 08:35:11;;;;;;;1.85;1.70;;;19.30;99.90;;;;;;5097631;28;20189;-67
2022/09/01 08:37:38;;;;;;;3.65;1.90;;;19.50;99.90;;;;;;5097446;28;20165;-67
2022/09/01 08:40:10;;;;;;;4.72;2.10;;;19.60;99.90;;;;;;5097356;28;20232;-67
2022/09/01 08:43:10;;;;;;;2.78;1.83;;;19.70;99.90;;;;;;5098120;28;20528;-67
2022/09/01 08:45:56;;;;;;;2.58;1.70;;;19.90;99.90;;;;;;5097655;28;20196;-67
2022/09/01 08:48:44;;;;;;;2.28;1.80;;;20.00;99.90;;;;;;5096898;28;20212;-67
2022/09/01 08:51:45;;;;;;;2.67;1.85;;;20.20;99.90;;;;;;5095708;28;20259;-67
2022/09/01 08:54:23;;;;;;;2.15;1.80;;;20.40;99.90;;;;;;5075126;28;20197;-67
2022/09/01 08:57:01;;;;;;;5.07;2.10;;;20.50;99.90;;;;;;5097096;28;20168;-67
2022/09/01 08:59:27;;;;;;;3.85;2.20;;;20.70;99.90;;;;;;5095727;28;20189;-67
2022/09/01 09:02:43;;;;;;;2.88;1.80;;;20.90;99.90;;;;;;5095743;28;20173;-67
2022/09/01 09:05:34;;;;;;;3.40;1.80;;;21.10;99.90;;;;;;5054668;28;20693;-67
2022/09/01 09:08:37;;;;;;;1.77;1.60;;;21.40;99.90;;;;;;5053553;28;20651;-67
2022/09/01 09:11:25;;;;;;;5.95;2.10;;;21.60;99.90;;;;;;5067194;28;20267;-67
2022/09/01 09:14:13;;;;;;;3.42;2.20;;;21.80;99.90;;;;;;5096929;28;20181;-67
2022/09/01 09:16:41;;;;;;;4.32;2.05;;;22.00;99.90;;;;;;5096269;28;20641;-67
2022/09/01 09:19:16;;;;;;;2.90;1.83;;;22.10;99.90;;;;;;5095004;28;20197;-67
2022/09/01 09:21:45;;;;;;;3.03;2.03;;;22.20;99.90;;;;;;5096126;28;20169;-68
2022/09/01 09:24:45;;;;;;;2.83;1.80;;;22.30;99.90;;;;;;5096753;28;20626;-67
2022/09/01 09:27:27;;;;;;;2.42;1.70;;;22.40;99.90;;;;;;5096396;28;20277;-67
2022/09/01 09:29:55;;;;;;;6.15;2.92;;;22.50;99.90;;;;;;5096293;28;20188;-67
2022/09/01 09:32:24;;;;;;;3.80;2.00;;;22.60;99.90;;;;;;5095227;28;20549;-67
2022/09/01 09:34:50;;;;;;;2.40;1.73;;;22.50;99.90;;;;;;5096274;28;20181;-67
2022/09/01 09:37:20;;;;;;;4.47;1.50;;;22.60;99.90;;;;;;5095938;28;20576;-67
2022/09/01 09:40:15;;;;;;;3.80;1.77;;;22.70;99.90;;;;;;5096423;28;20177;-67
2022/09/01 09:43:02;;;;;;;2.08;1.83;;;22.70;99.90;;;;;;5096316;28;20158;-67
2022/09/01 09:45:37;;;;;;;3.58;1.58;;;22.60;99.90;;;;;;5094259;28;20212;-68
2022/09/01 09:48:24;;;;;;;3.38;2.05;;;22.20;99.90;;;;;;5094573;28;20224;-67
2022/09/01 09:50:50;;;;;;;4.68;1.67;;;22.00;99.90;;;;;;5095921;28;20196;-68
2022/09/01 09:53:28;;;;;;;2.67;1.60;;;22.10;99.90;;;;;;5096299;28;20189;-68
2022/09/01 09:56:03;;;;;;;6.30;2.00;;;22.20;99.90;;;;;;5096103;28;20691;-67
2022/09/01 09:58:41;;;;;;;4.53;1.83;;;22.40;99.90;;;;;;5095000;28;20196;-67
2022/09/01 10:01:14;;;;;;;2.58;1.60;;;22.50;99.90;;;;;;5096147;28;20188;-68
2022/09/01 10:03:44;;;;;;;6.85;2.00;;;22.70;99.90;;;;;;5094341;28;20185;-68
2022/09/01 10:06:13;;;;;;;4.00;1.70;;;22.80;99.90;;;;;;5094101;28;20593;-67
2022/09/01 10:08:44;;;;;;;2.63;1.75;;;22.90;99.90;;;;;;5095938;28;20169;-67
2022/09/01 10:11:25;;;;;;;1.92;1.60;;;23.00;99.90;;;;;;5095878;28;20157;-67
2022/09/01 10:13:53;;;;;;;3.22;1.60;;;23.10;99.90;;;;;;5096090;28;20625;-67
2022/09/01 10:16:29;;;;;;;3.00;2.05;;;23.20;99.90;;;;;;5095292;28;20189;-67
2022/09/01 10:18:59;;;;;;;2.58;1.85;;;23.30;99.90;;;;;;5095291;28;20199;-66
2022/09/01 10:21:37;;;;;;;2.40;1.75;;;23.40;99.90;;;;;;5094808;28;20177;-67
2022/09/01 10:24:12;;;;;;;4.88;1.83;;;23.40;99.90;;;;;;5094166;28;20172;-67
2022/09/01 10:26:40;;;;;;;2.03;1.58;;;23.40;99.90;;;;;;5095545;28;20196;-67
2022/09/01 10:29:17;;;;;;;3.55;2.00;;;23.30;99.90;;;;;;5095175;28;20196;-66
2022/09/01 10:31:43;;;;;;;2.40;1.77;;;23.40;99.90;;;;;;5095611;28;20160;-67
2022/09/01 10:34:16;;;;;;;4.47;1.75;;;23.40;99.90;;;;;;5095102;28;20176;-67
2022/09/01 10:36:44;;;;;;;4.97;1.70;;;23.30;99.90;;;;;;5093377;28;20284;-67
2022/09/01 10:39:16;;;;;;;3.17;1.60;;;23.30;99.90;;;;;;5093564;28;20784;-68
2022/09/01 10:42:07;;;;;;;3.22;1.80;;;23.40;99.90;;;;;;5095671;28;20169;-67
2022/09/01 10:44:57;;;;;;;2.72;1.67;;;23.40;99.90;;;;;;5093583;28;20173;-67
2022/09/01 10:47:32;;;;;;;3.25;1.80;;;23.40;99.90;;;;;;5095731;28;20241;-67
2022/09/01 10:50:02;;;;;;;3.20;2.05;;;23.10;99.90;;;;;;5097546;28;20169;-68
2022/09/01 10:52:40;;;;;;;2.05;1.88;;;22.90;99.90;;;;;;5096893;28;20237;-67
2022/09/01 10:55:15;;;;;;;2.92;1.70;;;22.90;99.90;;;;;;5094992;28;20193;-67
2022/09/01 10:57:52;;;;;;;5.15;1.60;;;23.10;99.90;;;;;;5095018;28;20242;-67
2022/09/01 11:00:18;;;;;;;1.80;1.52;;;23.20;99.90;;;;;;5093865;28;20283;-67
2022/09/01 11:03:10;;;;;;;1.63;1.52;;;23.30;99.90;;;;;;5094629;28;20173;-68
2022/09/01 11:05:56;;;;;;;2.33;1.70;;;23.10;99.90;;;;;;5094562;28;20262;-67
2022/09/01 11:08:44;;;;;;;2.78;1.52;;;23.20;99.90;;;;;;5093583;28;20345;-67
2022/09/01 11:11:45;;;;;;;1.45;1.35;;;23.50;99.90;;;;;;5095095;28;20572;-67
2022/09/01 11:14:21;;;;;;;1.90;1.42;;;23.90;99.90;;;;;;5092657;28;20181;-67
2022/09/01 11:17:20;;;;;;;4.38;1.83;;;24.30;99.90;;;;;;5094397;28;20183;-67
2022/09/01 11:20:03;;;;;;;2.38;1.48;;;24.60;99.90;;;;;;5094254;28;20191;-67
2022/09/01 11:22:32;;;;;;;3.00;1.65;;;24.80;99.90;;;;;;5092858;28;20256;-68
2022/09/01 11:25:36;;;;;;;2.08;1.75;;;25.10;99.90;;;;;;5094196;28;20283;-67
2022/09/01 11:28:07;;;;;;;1.60;1.50;;;25.30;99.90;;;;;;5094276;28;20221;-68
2022/09/01 11:30:57;;;;;;;3.28;1.73;;;25.30;99.90;;;;;;5094607;28;20173;-67
2022/09/01 11:34:00;;;;;;;1.88;1.40;;;24.90;99.90;;;;;;5093955;28;20176;-67
2022/09/01 11:36:57;;;;;;;3.30;1.60;;;24.50;99.90;;;;;;5093903;28;20694;-67
2022/09/01 11:39:38;;;;;;;5.25;1.60;;;24.10;99.90;;;;;;5085686;28;20272;-68
2022/09/01 11:42:16;;;;;;;1.63;1.52;;;24.30;99.90;;;;;;5094045;28;20161;-68
2022/09/01 11:45:12;;;;;;;2.13;1.63;;;24.70;99.90;;;;;;5092700;28;20254;-67
2022/09/01 11:47:51;;;;;;;1.58;1.48;;;25.20;99.90;;;;;;5094102;28;20181;-67
2022/09/01 11:50:34;;;;;;;1.73;1.30;;;25.60;99.90;;;;;;5092694;28;20591;-67
2022/09/01 11:53:13;;;;;;;2.00;1.60;;;25.60;99.90;;;;;;5094007;28;20594;-67
2022/09/01 11:55:43;;;;;;;2.15;1.65;;;25.80;99.90;;;;;;5093922;28;20250;-68
2022/09/01 11:58:29;;;;;;;2.30;1.52;;;26.10;99.90;;;;;;5094281;28;20185;-68
2022/09/01 12:01:10;;;;;;;2.03;1.70;;;26.40;99.90;;;;;;5093856;28;20244;-67
2022/09/01 12:03:35;;;;;;;3.47;1.60;;;26.30;99.90;;;;;;5093915;28;20191;-67
2022/09/01 12:06:05;;;;;;;1.45;1.35;;;26.10;99.90;;;;;;5092213;28;20201;-67
2022/09/01 12:08:35;;;;;;;3.60;1.27;;;25.70;99.90;;;;;;5094165;28;20292;-67
2022/09/01 12:11:21;;;;;;;1.88;1.40;;;25.40;99.90;;;;;;5092691;28;20184;-67
2022/09/01 12:14:03;;;;;;;1.80;1.55;;;25.50;99.90;;;;;;5094410;28;20511;-67
2022/09/01 12:16:33;;;;;;;2.28;1.70;;;25.80;99.90;;;;;;5093635;28;20193;-67
2022/09/01 12:19:00;;;;;;;3.67;1.30;;;26.20;99.90;;;;;;5092388;28;20185;-67
2022/09/01 12:21:33;;;;;;;3.15;1.52;;;26.40;99.90;;;;;;5093430;28;20243;-68
2022/09/01 12:24:15;;;;;;;3.13;1.50;;;26.20;99.90;;;;;;5094115;28;20163;-68
2022/09/01 12:26:41;;;;;;;3.40;1.60;;;26.20;99.90;;;;;;5092434;28;20216;-68
2022/09/01 12:29:08;;;;;;;1.48;1.27;;;26.00;99.90;;;;;;5093525;28;20177;-69
2022/09/01 12:31:34;;;;;;;1.90;1.60;;;26.00;99.90;;;;;;5093647;28;20177;-69
2022/09/01 12:34:04;;;;;;;1.45;1.35;;;25.80;99.90;;;;;;5093786;28;20172;-68
2022/09/01 12:36:36;;;;;;;2.75;1.35;;;26.00;99.90;;;;;;5093513;28;20189;-68
2022/09/01 12:39:18;;;;;;;2.53;1.55;;;26.30;99.90;;;;;;5093777;28;20222;-69
2022/09/01 12:41:46;;;;;;;1.67;1.50;;;26.40;99.90;;;;;;5093964;28;20169;-69
2022/09/01 12:44:30;;;;;;;1.65;1.55;;;26.50;99.90;;;;;;5097095;28;20177;-69
2022/09/01 12:46:59;;;;;;;1.50;1.40;;;26.90;99.90;;;;;;5097445;28;20662;-69
2022/09/01 12:49:36;;;;;;;1.92;1.50;;;27.20;99.90;;;;;;5096454;28;20177;-69
2022/09/01 12:52:24;;;;;;;2.40;1.38;;;27.50;99.90;;;;;;5097948;28;20164;-69
2022/09/01 12:55:15;;;;;;;2.28;1.42;;;27.80;99.90;;;;;;5096631;28;20193;-69
2022/09/01 12:57:50;;;;;;;2.45;1.50;;;28.20;99.90;;;;;;5096175;28;20473;-69
2022/09/01 13:00:54;;;;;;;2.80;1.30;;;28.40;99.90;;;;;;5097549;28;20244;-69
2022/09/01 13:03:21;;;;;;;2.13;1.40;;;28.70;99.90;;;;;;5095885;28;20218;-69
2022/09/01 13:05:57;;;;;;;1.98;1.50;;;28.80;99.90;;;;;;5096903;28;20227;-69
2022/09/01 13:08:32;;;;;;;2.47;1.40;;;28.40;99.90;;;;;;5096796;28;20267;-69
2022/09/01 13:11:07;;;;;;;3.17;1.80;;;28.30;99.90;;;;;;5097248;28;20160;-69
2022/09/01 13:13:36;;;;;;;3.92;2.03;;;27.60;99.90;;;;;;5097262;28;20179;-69
2022/09/01 13:16:09;;;;;;;2.17;1.30;;;26.80;99.90;;;;;;5095632;28;20204;-69
2022/09/01 13:18:34;;;;;;;1.58;1.45;;;26.70;99.90;;;;;;5096530;28;20181;-69